Time;durP1;ratioP1;P1;durP2;ratioP2;P2;SDS_P1;SDS_P2;PMS_P1;PMS_P2;Temp;Humidity;BMP_temperature;BMP_pressure;BME280_temperature;BME280_humidity;BME280_pressure;Samples;Min_cycle;Max_cycle;Signal;HPM_P1;HPM_P2
2022/06/17 00:01:04;;;;;;;6.57;4.97;;;;;;;19.03;100.00;96844.41;4986174;28;20423;-52
2022/06/17 00:03:34;;;;;;;5.90;4.80;;;;;;;19.06;100.00;96847.53;4986371;28;20563;-46
2022/06/17 00:06:04;;;;;;;11.60;5.40;;;;;;;19.11;100.00;96842.44;4986118;28;20074;-51
2022/06/17 00:08:38;;;;;;;6.28;4.93;;;;;;;18.84;100.00;96830.63;4985709;28;20066;-48
2022/06/17 00:11:11;;;;;;;6.43;4.82;;;;;;;18.86;100.00;96831.28;4984133;28;20467;-44
2022/06/17 00:13:39;;;;;;;11.38;5.28;;;;;;;18.95;100.00;96824.78;4985605;28;20081;-44
2022/06/17 00:16:11;;;;;;;10.43;5.47;;;;;;;18.97;100.00;96824.63;4985576;28;20077;-44
2022/06/17 00:18:41;;;;;;;5.55;4.78;;;;;;;18.93;100.00;96816.16;4981145;28;20075;-46
2022/06/17 00:21:12;;;;;;;6.13;5.22;;;;;;;18.98;100.00;96821.75;4971772;28;20513;-46
2022/06/17 00:23:41;;;;;;;6.03;5.13;;;;;;;18.71;100.00;96822.41;4971250;28;20078;-45
2022/06/17 00:26:09;;;;;;;7.93;4.90;;;;;;;18.58;100.00;96830.25;4968407;28;21558;-43
2022/06/17 00:28:38;;;;;;;6.28;5.40;;;;;;;18.46;100.00;96837.91;4985613;28;20054;-47
2022/06/17 00:31:06;;;;;;;6.10;5.50;;;;;;;18.31;100.00;96837.94;4975691;28;20548;-49
2022/06/17 00:33:34;;;;;;;6.78;5.45;;;;;;;18.38;100.00;96840.69;4976966;28;20544;-48
2022/06/17 00:36:05;;;;;;;6.93;5.20;;;;;;;18.29;100.00;96847.13;4985590;28;20074;-55
2022/06/17 00:38:36;;;;;;;8.55;5.32;;;;;;;18.31;100.00;96843.28;4969859;28;20090;-46
2022/06/17 00:41:13;;;;;;;6.53;5.43;;;;;;;18.26;100.00;96841.13;4987286;28;20081;-45
2022/06/17 00:43:44;;;;;;;7.75;5.30;;;;;;;18.17;100.00;96850.25;4990247;28;20066;-46
2022/06/17 00:46:23;;;;;;;8.63;5.45;;;;;;;18.16;100.00;96851.25;4988665;28;20074;-51
2022/06/17 00:48:58;;;;;;;8.05;5.80;;;;;;;18.00;100.00;96854.91;4989819;28;20085;-44
2022/06/17 00:51:31;;;;;;;8.02;5.38;;;;;;;18.08;100.00;96847.84;4982348;28;20077;-46
2022/06/17 00:54:02;;;;;;;6.07;5.47;;;;;;;17.97;100.00;96851.78;4971267;28;20082;-46
2022/06/17 00:56:34;;;;;;;9.27;5.95;;;;;;;17.98;100.00;96853.44;4989237;28;20085;-44
2022/06/17 00:59:04;;;;;;;8.85;5.03;;;;;;;18.03;100.00;96857.22;4988147;28;20485;-45
2022/06/17 01:01:34;;;;;;;;;;;;;;;18.14;100.00;96855.97;4989541;28;20062;-47
2022/06/17 01:04:05;;;;;;;6.93;5.53;;;;;;;18.20;100.00;96857.91;4988233;28;20392;-46
2022/06/17 01:06:37;;;;;;;10.38;5.88;;;;;;;18.16;100.00;96853.91;4987181;28;20077;-44
2022/06/17 01:12:05;;;;;;;11.30;6.05;;;;;;;18.17;100.00;96860.06;4976225;28;20082;-48
2022/06/17 01:14:34;;;;;;;7.22;5.75;;;;;;;17.91;100.00;96866.69;4989447;28;20489;-45
2022/06/17 01:17:03;;;;;;;7.32;6.05;;;;;;;18.01;100.00;96867.25;4986493;28;20070;-49
2022/06/17 01:19:35;;;;;;;6.80;5.65;;;;;;;17.89;100.00;96882.03;4988436;28;20069;-48
2022/06/17 01:22:14;;;;;;;9.05;6.25;;;;;;;18.03;100.00;96885.75;4988924;28;20077;-44
2022/06/17 01:24:45;;;;;;;9.38;6.10;;;;;;;17.99;100.00;96893.28;4978646;28;20074;-46
2022/06/17 01:27:15;;;;;;;9.88;6.15;;;;;;;18.05;100.00;96899.75;4974990;28;20069;-49
2022/06/17 01:29:43;;;;;;;8.20;6.50;;;;;;;17.94;100.00;96898.34;4988385;28;20529;-46
2022/06/17 01:32:12;;;;;;;8.95;6.35;;;;;;;17.52;100.00;96901.47;4969376;28;20078;-51
2022/06/17 01:34:41;;;;;;;7.60;6.25;;;;;;;17.66;100.00;96905.22;4984504;28;20066;-46
2022/06/17 01:37:10;;;;;;;7.35;6.30;;;;;;;17.42;100.00;96907.03;4987583;28;20070;-49
2022/06/17 01:39:41;;;;;;;8.50;6.43;;;;;;;17.61;100.00;96903.06;4988309;28;20085;-45
2022/06/17 01:42:11;;;;;;;7.97;6.25;;;;;;;17.43;100.00;96891.88;4987242;28;21221;-46
2022/06/17 01:44:41;;;;;;;8.13;5.75;;;;;;;17.43;100.00;96894.53;4988973;28;20085;-46
2022/06/17 01:47:12;;;;;;;11.77;5.90;;;;;;;17.61;100.00;96895.06;4987311;28;21255;-49
2022/06/17 01:49:44;;;;;;;9.23;5.90;;;;;;;17.67;100.00;96897.03;4987968;28;20058;-46
2022/06/17 01:52:14;;;;;;;6.93;5.72;;;;;;;17.47;100.00;96894.00;4987607;28;20069;-49
2022/06/17 01:54:48;;;;;;;8.07;6.40;;;;;;;17.50;100.00;96895.47;4988049;28;20100;-53
2022/06/17 01:57:22;;;;;;;8.02;5.80;;;;;;;17.55;100.00;96893.94;4987912;28;20660;-44
2022/06/17 01:59:54;;;;;;;7.50;5.85;;;;;;;17.61;100.00;96891.56;5015802;28;20061;-47
2022/06/17 02:02:23;;;;;;;7.68;5.90;;;;;;;17.43;100.00;96891.88;4966984;28;20093;-45
2022/06/17 02:04:58;;;;;;;6.87;5.73;;;;;;;17.46;100.00;96892.34;4982635;28;20555;-52
2022/06/17 02:07:28;;;;;;;8.88;6.32;;;;;;;17.33;100.00;96890.25;4987630;28;21105;-44
2022/06/17 02:09:56;;;;;;;7.50;6.00;;;;;;;17.47;100.00;96877.16;4975588;28;20070;-49
2022/06/17 02:12:27;;;;;;;7.38;5.70;;;;;;;17.19;100.00;96876.84;4973412;28;20077;-46
2022/06/17 02:14:57;;;;;;;6.70;5.95;;;;;;;16.95;100.00;96875.97;4987066;28;20061;-49
2022/06/17 02:17:29;;;;;;;10.38;6.45;;;;;;;16.91;100.00;96866.69;4984640;28;20077;-52
2022/06/17 02:19:58;;;;;;;8.40;6.50;;;;;;;16.70;100.00;96864.56;4969082;28;20066;-49
2022/06/17 02:22:29;;;;;;;8.93;6.03;;;;;;;16.93;100.00;96864.69;4982102;28;20074;-44
2022/06/17 02:25:00;;;;;;;8.10;6.38;;;;;;;17.08;100.00;96854.09;4987069;28;20473;-51
2022/06/17 02:27:32;;;;;;;9.93;6.18;;;;;;;16.75;100.00;96856.91;4987708;28;20078;-44
2022/06/17 02:30:01;;;;;;;7.68;6.35;;;;;;;16.88;100.00;96850.22;4984653;28;20116;-48
2022/06/17 02:32:30;;;;;;;8.38;6.22;;;;;;;16.63;100.00;96847.63;4987889;28;20084;-43
2022/06/17 02:35:01;;;;;;;8.47;6.20;;;;;;;16.80;100.00;96841.25;4986439;28;20085;-48
2022/06/17 02:37:31;;;;;;;8.82;6.72;;;;;;;16.68;100.00;96839.13;4985045;28;20062;-47
2022/06/17 02:40:03;;;;;;;8.50;5.67;;;;;;;16.92;100.00;96844.34;4986556;28;20101;-45
2022/06/17 02:42:36;;;;;;;10.63;6.20;;;;;;;16.78;100.00;96840.59;4987607;28;20540;-46
2022/06/17 02:45:12;;;;;;;8.40;5.85;;;;;;;16.74;100.00;96844.63;4983881;28;20138;-44
2022/06/17 02:47:41;;;;;;;8.68;6.05;;;;;;;16.61;100.00;96855.78;4987363;28;20093;-46
2022/06/17 02:50:15;;;;;;;9.45;6.25;;;;;;;16.50;100.00;96850.84;4985602;28;20556;-48
2022/06/17 02:52:43;;;;;;;10.02;6.22;;;;;;;16.30;100.00;96852.22;4986817;28;20057;-47
2022/06/17 02:55:16;;;;;;;7.35;6.07;;;;;;;16.29;100.00;96840.75;4986580;28;20077;-47
2022/06/17 02:57:47;;;;;;;7.75;6.63;;;;;;;16.26;100.00;96849.09;4987392;28;20084;-48
2022/06/17 03:00:18;;;;;;;10.02;6.30;;;;;;;16.19;100.00;96856.09;4987175;28;20112;-44
2022/06/17 03:02:49;;;;;;;9.30;6.78;;;;;;;16.51;100.00;96857.81;4986215;28;20088;-44
2022/06/17 03:05:22;;;;;;;11.25;7.03;;;;;;;16.60;100.00;96863.94;4986888;28;20093;-45
2022/06/17 03:07:51;;;;;;;8.57;6.47;;;;;;;16.60;100.00;96870.09;4987111;28;20072;-50
2022/06/17 03:10:22;;;;;;;9.50;6.82;;;;;;;16.57;100.00;96874.94;4986065;28;20081;-49
2022/06/17 03:12:56;;;;;;;8.90;7.10;;;;;;;16.65;100.00;96874.91;4986075;28;20085;-51
2022/06/17 03:15:24;;;;;;;9.25;7.00;;;;;;;16.59;100.00;96875.63;4987602;28;20062;-50
2022/06/17 03:17:53;;;;;;;11.57;7.38;;;;;;;16.49;100.00;96870.47;4985436;28;20089;-51
2022/06/17 03:20:24;;;;;;;8.18;6.43;;;;;;;16.57;100.00;96870.44;4986223;28;20074;-49
2022/06/17 03:23:01;;;;;;;8.55;6.72;;;;;;;16.52;100.00;96879.97;4985077;28;20058;-45
2022/06/17 03:25:33;;;;;;;8.02;7.07;;;;;;;16.55;100.00;96891.09;4987194;28;20081;-49
2022/06/17 03:28:04;;;;;;;10.43;7.20;;;;;;;16.50;100.00;96888.09;4986978;28;20082;-45
2022/06/17 03:30:36;;;;;;;9.95;7.10;;;;;;;16.32;100.00;96876.84;4986325;28;20474;-45
2022/06/17 03:33:09;;;;;;;7.78;6.60;;;;;;;16.36;100.00;96884.31;4984556;28;20076;-49
2022/06/17 03:35:40;;;;;;;7.40;6.50;;;;;;;16.48;100.00;96883.94;4985825;28;20078;-52
2022/06/17 03:38:19;;;;;;;10.52;6.72;;;;;;;16.45;100.00;96886.94;4985348;28;20070;-44
2022/06/17 03:40:50;;;;;;;8.35;7.05;;;;;;;16.44;100.00;96891.44;4985996;28;20073;-46
2022/06/17 03:43:25;;;;;;;8.02;6.78;;;;;;;16.38;100.00;96900.13;4985761;28;20112;-47
2022/06/17 03:45:57;;;;;;;9.48;7.10;;;;;;;16.34;100.00;96897.00;4984732;28;20073;-45
2022/06/17 03:48:29;;;;;;;11.32;7.05;;;;;;;16.33;100.00;96908.63;4986728;28;20062;-45
2022/06/17 03:50:58;;;;;;;8.63;7.70;;;;;;;16.22;100.00;96906.31;4986358;28;20077;-44
2022/06/17 03:53:28;;;;;;;11.63;7.30;;;;;;;16.12;100.00;96911.81;4989877;28;20082;-49
2022/06/17 03:55:59;;;;;;;9.23;7.20;;;;;;;16.02;100.00;96902.34;4991025;28;20456;-48
2022/06/17 03:58:29;;;;;;;9.10;7.35;;;;;;;16.33;100.00;96900.63;4990317;28;20062;-47
2022/06/17 04:01:00;;;;;;;8.60;7.80;;;;;;;16.89;100.00;96891.81;4989103;28;20066;-53
2022/06/17 04:03:32;;;;;;;8.60;7.43;;;;;;;18.57;100.00;96893.53;4989383;28;20066;-44
2022/06/17 04:06:05;;;;;;;8.65;7.00;;;;;;;18.89;100.00;96884.34;4989738;28;20097;-45
2022/06/17 04:08:35;;;;;;;7.50;6.80;;;;;;;20.00;100.00;96887.59;4989947;28;20086;-52
2022/06/17 04:11:04;;;;;;;8.60;5.63;;;;;;;20.47;100.00;96879.88;4989593;28;20067;-52
2022/06/17 04:13:36;;;;;;;7.07;5.72;;;;;;;20.62;100.00;96881.47;5007665;28;20063;-48
2022/06/17 04:16:16;;;;;;;7.78;5.70;;;;;;;21.51;100.00;96875.25;4965899;28;20102;-47
2022/06/17 04:18:45;;;;;;;6.82;6.15;;;;;;;21.83;100.00;96872.81;4979443;28;20457;-45
2022/06/17 04:21:13;;;;;;;7.75;6.30;;;;;;;21.82;100.00;96879.22;4989079;28;20054;-48
2022/06/17 04:23:42;;;;;;;7.90;6.18;;;;;;;22.46;100.00;96883.94;4989507;28;20181;-46
2022/06/17 04:26:17;;;;;;;7.10;6.20;;;;;;;21.97;100.00;96887.06;4971358;28;20406;-46
2022/06/17 04:28:49;;;;;;;11.23;7.38;;;;;;;23.83;100.00;96883.84;4967701;28;20090;-51
2022/06/17 04:31:20;;;;;;;6.63;6.00;;;;;;;25.01;100.00;96891.88;4968447;28;20058;-46
2022/06/17 04:33:53;;;;;;;7.15;5.75;;;;;;;25.33;91.53;96895.28;4972078;28;20070;-52
2022/06/17 04:36:24;;;;;;;6.68;5.93;;;;;;;24.75;100.00;96903.81;4974529;28;20967;-50
2022/06/17 04:38:55;;;;;;;7.65;6.55;;;;;;;25.48;100.00;96910.25;4986565;28;20094;-46
2022/06/17 04:41:28;;;;;;;7.97;6.40;;;;;;;26.04;94.22;96914.47;4970026;28;20090;-52
2022/06/17 04:43:59;;;;;;;7.13;6.10;;;;;;;26.46;89.84;96925.22;4970292;28;20066;-45
2022/06/17 04:46:30;;;;;;;8.75;6.20;;;;;;;26.88;87.22;96923.25;4983383;28;20513;-50
2022/06/17 04:48:59;;;;;;;6.78;5.85;;;;;;;27.02;87.11;96929.25;4985752;28;20077;-46
2022/06/17 04:51:29;;;;;;;8.00;5.75;;;;;;;27.22;82.23;96934.31;4988984;28;20070;-50
2022/06/17 04:54:04;;;;;;;7.60;5.53;;;;;;;27.16;82.74;96944.19;4985129;28;20097;-53
2022/06/17 04:56:35;;;;;;;11.45;6.15;;;;;;;27.25;79.70;96949.22;4988938;28;20072;-51
2022/06/17 04:59:18;;;;;;;6.93;5.72;;;;;;;27.39;78.18;96942.47;4987512;28;20081;-50
2022/06/17 05:01:48;;;;;;;6.15;5.65;;;;;;;27.73;78.88;96950.75;4988520;28;20069;-50
2022/06/17 05:04:16;;;;;;;6.47;5.60;;;;;;;27.63;80.27;96945.94;4988474;28;20082;-43
2022/06/17 05:06:45;;;;;;;6.53;5.75;;;;;;;27.35;89.70;96949.44;4980982;28;20167;-50
2022/06/17 05:09:20;;;;;;;7.70;5.57;;;;;;;27.53;86.30;96952.00;4973728;28;20062;-47
2022/06/17 05:11:50;;;;;;;5.90;5.30;;;;;;;27.53;80.67;96962.00;4987574;28;20089;-44
2022/06/17 05:14:24;;;;;;;6.10;5.60;;;;;;;27.26;83.34;96964.44;4989605;28;20078;-46
2022/06/17 05:16:52;;;;;;;6.15;5.25;;;;;;;26.87;79.98;96964.06;4987521;28;21010;-46
2022/06/17 05:19:25;;;;;;;8.73;5.18;;;;;;;27.27;78.58;96955.25;4989301;28;20058;-45
2022/06/17 05:21:53;;;;;;;6.38;5.28;;;;;;;27.41;78.00;96964.75;4991796;28;20081;-43
2022/06/17 05:24:22;;;;;;;5.97;5.10;;;;;;;26.71;83.94;96962.91;4991619;28;20066;-50
2022/06/17 05:26:51;;;;;;;7.13;5.38;;;;;;;25.87;87.38;96971.03;4987666;28;20078;-47
2022/06/17 05:29:21;;;;;;;6.50;5.18;;;;;;;26.17;81.72;96962.91;4988792;28;20081;-46
2022/06/17 05:31:51;;;;;;;5.10;4.60;;;;;;;26.56;74.78;96962.53;4986913;28;20068;-48
2022/06/17 05:34:20;;;;;;;5.45;4.60;;;;;;;26.22;74.30;96975.72;4991992;28;20704;-47
2022/06/17 05:36:48;;;;;;;5.32;4.70;;;;;;;26.09;79.68;96965.97;4987480;28;20450;-50
2022/06/17 05:39:16;;;;;;;7.45;4.93;;;;;;;25.45;78.12;96981.75;4987766;28;20080;-50
2022/06/17 05:41:45;;;;;;;6.97;4.80;;;;;;;25.73;79.71;96970.38;4987732;28;20074;-46
2022/06/17 05:44:14;;;;;;;5.18;4.70;;;;;;;25.73;80.36;96975.78;4986965;28;20085;-49
2022/06/17 05:46:44;;;;;;;5.00;4.50;;;;;;;26.06;79.42;96977.22;4987888;28;20062;-45
2022/06/17 05:49:13;;;;;;;5.78;4.85;;;;;;;25.79;86.64;96980.28;4988518;28;20448;-51
2022/06/17 05:51:41;;;;;;;6.38;4.70;;;;;;;25.79;91.29;96982.16;4987267;28;20086;-51
2022/06/17 05:54:27;;;;;;;6.93;4.65;;;;;;;26.06;80.53;96981.81;4987265;28;20077;-54
2022/06/17 05:56:55;;;;;;;5.00;4.38;;;;;;;26.05;84.02;96983.69;4990242;28;20473;-48
2022/06/17 05:59:31;;;;;;;5.55;4.63;;;;;;;26.00;77.78;96994.38;4973482;28;20091;-46
2022/06/17 06:02:00;;;;;;;4.70;4.22;;;;;;;26.53;72.67;96990.88;4988970;28;20092;-46
2022/06/17 06:04:31;;;;;;;5.80;4.25;;;;;;;26.18;84.85;96998.88;4988084;28;20065;-43
2022/06/17 06:07:00;;;;;;;8.38;4.57;;;;;;;25.98;83.02;96991.06;4987450;28;20073;-54
2022/06/17 06:09:28;;;;;;;5.03;4.40;;;;;;;24.58;99.63;97000.66;4989042;28;20066;-47
2022/06/17 06:11:56;;;;;;;5.43;4.25;;;;;;;24.60;100.00;97000.41;4987319;28;20088;-52
2022/06/17 06:14:25;;;;;;;6.28;4.68;;;;;;;24.74;100.00;97007.38;4986832;28;20084;-50
2022/06/17 06:16:53;;;;;;;6.43;4.72;;;;;;;24.58;100.00;97011.44;4986308;28;20062;-44
2022/06/17 06:19:23;;;;;;;6.30;4.53;;;;;;;24.49;100.00;97020.84;4987751;28;20066;-47
2022/06/17 06:21:51;;;;;;;4.90;4.40;;;;;;;24.90;94.62;97018.63;4982425;28;20081;-44
2022/06/17 06:24:19;;;;;;;4.90;4.35;;;;;;;24.70;100.00;97021.50;4985218;28;20077;-45
2022/06/17 06:26:48;;;;;;;5.90;4.30;;;;;;;24.37;100.00;97030.66;4987416;28;20728;-47
2022/06/17 06:29:16;;;;;;;6.88;4.10;;;;;;;24.81;100.00;97021.63;4986508;28;20090;-48
2022/06/17 06:31:45;;;;;;;8.40;4.40;;;;;;;23.83;100.00;97027.44;4987312;28;20550;-46
2022/06/17 06:34:15;;;;;;;5.80;4.45;;;;;;;24.19;100.00;97033.25;4988443;28;20107;-53
2022/06/17 06:36:45;;;;;;;6.65;4.50;;;;;;;23.56;100.00;97031.25;4987224;28;20544;-55
2022/06/17 06:39:13;;;;;;;11.55;5.18;;;;;;;24.44;100.00;97034.16;4983896;28;20066;-51
2022/06/17 06:41:42;;;;;;;5.90;4.50;;;;;;;24.46;100.00;97036.63;4987588;28;20544;-49
2022/06/17 06:44:10;;;;;;;6.72;4.68;;;;;;;23.90;100.00;97033.63;4985424;28;21532;-51
2022/06/17 06:46:39;;;;;;;7.10;5.07;;;;;;;24.01;100.00;97028.59;4987461;28;20073;-45
2022/06/17 06:49:07;;;;;;;9.35;5.40;;;;;;;23.45;100.00;97030.88;4986390;28;20066;-45
2022/06/17 06:51:35;;;;;;;6.80;4.70;;;;;;;23.60;100.00;97040.53;4985815;28;20072;-45
2022/06/17 06:54:05;;;;;;;7.38;4.93;;;;;;;23.95;100.00;97038.38;4983073;28;20070;-47
2022/06/17 06:56:33;;;;;;;6.22;4.75;;;;;;;24.04;100.00;97042.47;4986416;28;20070;-45
2022/06/17 06:59:02;;;;;;;7.88;5.45;;;;;;;24.07;100.00;97041.22;4986090;28;20078;-45
2022/06/17 07:01:33;;;;;;;6.38;5.30;;;;;;;24.33;100.00;97045.63;4987198;28;20070;-45
2022/06/17 07:04:03;;;;;;;7.38;5.22;;;;;;;24.67;100.00;97044.34;4987633;28;20074;-47
2022/06/17 07:06:31;;;;;;;6.33;5.17;;;;;;;23.38;100.00;97040.00;4989467;28;20552;-51
2022/06/17 07:09:00;;;;;;;7.95;5.30;;;;;;;23.52;100.00;97044.31;4988157;28;20085;-47
2022/06/17 07:11:30;;;;;;;7.05;5.18;;;;;;;24.49;100.00;97047.81;4986984;28;20078;-45
2022/06/17 07:13:58;;;;;;;6.50;5.00;;;;;;;24.36;100.00;97055.94;4986487;28;20070;-45
2022/06/17 07:16:26;;;;;;;6.97;5.03;;;;;;;24.62;100.00;97058.50;4986942;28;20073;-48
2022/06/17 07:18:55;;;;;;;7.03;5.07;;;;;;;24.63;100.00;97067.41;4986427;28;20097;-50
2022/06/17 07:21:23;;;;;;;6.25;4.78;;;;;;;24.23;100.00;97056.88;4985680;28;20073;-45
2022/06/17 07:23:52;;;;;;;8.65;4.60;;;;;;;24.45;100.00;97062.78;4987810;28;20698;-48
2022/06/17 07:26:23;;;;;;;7.75;4.97;;;;;;;24.61;100.00;97048.75;4989584;28;20066;-52
2022/06/17 07:28:53;;;;;;;6.45;4.53;;;;;;;24.23;100.00;97064.13;4990072;28;20078;-55
2022/06/17 07:31:22;;;;;;;7.50;4.55;;;;;;;24.31;100.00;97055.78;4990140;28;20073;-47
2022/06/17 07:33:51;;;;;;;5.55;4.60;;;;;;;24.25;100.00;97053.94;4991007;28;20070;-48
2022/06/17 07:41:52;;;;;;;7.20;4.82;;;;;;;25.33;100.00;97054.59;4988920;28;20073;-45
2022/06/17 07:44:22;;;;;;;7.60;5.00;;;;;;;24.97;100.00;97046.38;4990218;28;20066;-46
2022/06/17 07:46:51;;;;;;;7.63;5.18;;;;;;;25.27;100.00;97047.38;4987204;28;20078;-45
2022/06/17 07:49:19;;;;;;;5.93;5.05;;;;;;;25.47;100.00;97049.88;4989193;28;20080;-50
2022/06/17 07:51:49;;;;;;;7.43;4.80;;;;;;;25.42;100.00;97051.56;4983463;28;20065;-50
2022/06/17 07:54:18;;;;;;;7.68;5.68;;;;;;;25.23;100.00;97058.84;4975041;28;20473;-51
2022/06/17 07:56:53;;;;;;;8.68;5.40;;;;;;;25.23;100.00;97064.25;4986432;28;20109;-50
2022/06/17 07:59:23;;;;;;;8.88;5.20;;;;;;;25.09;100.00;97064.34;4988074;28;20107;-54
2022/06/17 08:01:52;;;;;;;7.13;5.00;;;;;;;25.70;100.00;97070.78;4989698;28;20082;-48
2022/06/17 08:04:20;;;;;;;9.10;4.70;;;;;;;25.15;100.00;97075.31;4992697;28;20066;-51
2022/06/17 08:06:50;;;;;;;7.03;4.93;;;;;;;25.10;99.33;97082.19;4977444;28;20081;-48
2022/06/17 08:09:18;;;;;;;5.50;4.55;;;;;;;25.49;95.07;97080.16;4971815;28;20065;-47
2022/06/17 08:11:47;;;;;;;6.47;4.40;;;;;;;25.36;100.00;97077.59;4991300;28;20090;-52
2022/06/17 08:14:16;;;;;;;7.60;4.90;;;;;;;25.50;100.00;97067.50;4986031;28;20074;-44
2022/06/17 08:16:46;;;;;;;6.55;5.18;;;;;;;25.91;92.19;97074.94;4993501;28;20069;-45
2022/06/17 08:19:15;;;;;;;6.40;4.95;;;;;;;25.44;100.00;97076.50;4991927;28;20069;-49
2022/06/17 08:21:44;;;;;;;5.78;5.13;;;;;;;26.09;100.00;97070.56;4991607;28;20058;-45
2022/06/17 08:24:27;;;;;;;8.32;5.75;;;;;;;25.57;100.00;97065.56;4990635;28;20073;-48
2022/06/17 08:26:56;;;;;;;7.60;5.40;;;;;;;25.57;100.00;97062.84;4988021;28;20094;-51
2022/06/17 08:29:26;;;;;;;6.45;5.10;;;;;;;25.67;100.00;97078.50;4991653;28;20097;-49
2022/06/17 08:35:02;;;;;;;6.53;4.63;;;;;;;25.28;100.00;97086.81;4990507;28;20066;-46
2022/06/17 08:37:31;;;;;;;8.38;5.00;;;;;;;25.79;100.00;97082.13;4990898;28;20464;-51
2022/06/17 08:40:00;;;;;;;8.05;4.70;;;;;;;25.60;99.77;97089.38;4986747;28;20074;-48
2022/06/17 08:42:43;;;;;;;6.78;4.32;;;;;;;25.57;100.00;97092.56;5016683;28;20061;-50
2022/06/17 08:45:18;;;;;;;6.90;5.03;;;;;;;25.52;100.00;97079.72;4994025;28;20066;-53
2022/06/17 08:48:04;;;;;;;10.10;4.90;;;;;;;25.69;100.00;97092.63;4991242;28;20089;-49
2022/06/17 08:50:47;;;;;;;6.05;4.50;;;;;;;25.66;100.00;97087.66;4971777;28;20078;-47
2022/06/17 08:53:37;;;;;;;5.47;4.38;;;;;;;25.52;100.00;97090.50;4971817;28;20631;-46
2022/06/17 08:56:13;;;;;;;8.45;4.40;;;;;;;25.09;100.00;97095.91;4991257;28;20077;-49
2022/06/17 08:58:51;;;;;;;9.20;4.68;;;;;;;25.60;100.00;97096.66;4991402;28;20074;-53
2022/06/17 09:01:26;;;;;;;8.00;4.50;;;;;;;25.76;100.00;97099.59;4991143;28;20500;-48
2022/06/17 09:04:05;;;;;;;8.60;4.20;;;;;;;25.65;100.00;97100.34;4991361;28;20070;-47
2022/06/17 09:06:45;;;;;;;5.65;4.32;;;;;;;25.87;100.00;97100.75;4991441;28;20070;-47
2022/06/17 09:09:26;;;;;;;9.97;4.40;;;;;;;25.73;99.89;97104.63;4990860;28;20146;-45
2022/06/17 09:12:00;;;;;;;7.35;4.22;;;;;;;26.03;100.00;97102.03;4990707;28;20088;-50
2022/06/17 09:14:38;;;;;;;6.40;4.13;;;;;;;26.22;89.50;97097.41;4991444;28;20085;-51
2022/06/17 09:17:14;;;;;;;8.00;4.15;;;;;;;25.82;92.41;97102.50;4971689;28;20070;-50
2022/06/17 09:19:52;;;;;;;8.25;4.07;;;;;;;25.84;94.28;97106.59;4977503;28;20073;-49
2022/06/17 09:22:26;;;;;;;4.50;3.83;;;;;;;26.27;100.00;97100.25;4972593;28;20656;-48
2022/06/17 09:24:56;;;;;;;5.22;4.03;;;;;;;25.85;79.58;97093.94;4983097;28;20065;-46
2022/06/17 09:27:27;;;;;;;8.38;3.75;;;;;;;25.93;100.00;97090.94;4987631;28;20073;-45
2022/06/17 09:29:59;;;;;;;9.68;4.10;;;;;;;25.75;92.43;97100.66;4991072;28;20078;-45
2022/06/17 09:32:30;;;;;;;4.88;3.70;;;;;;;26.21;91.23;97093.88;4987736;28;20086;-49
2022/06/17 09:35:04;;;;;;;5.35;3.50;;;;;;;26.06;93.80;97096.16;4990741;28;20096;-49
2022/06/17 09:37:36;;;;;;;4.28;3.28;;;;;;;26.14;78.29;97089.63;4988189;28;20085;-46
2022/06/17 09:40:07;;;;;;;5.45;3.35;;;;;;;26.46;100.00;97088.34;4990607;28;20500;-49
2022/06/17 09:42:44;;;;;;;4.15;3.03;;;;;;;26.14;76.42;97095.84;4990920;28;20066;-48
2022/06/17 09:45:16;;;;;;;6.20;3.70;;;;;;;26.42;76.01;97089.84;4990164;28;20085;-49
2022/06/17 09:47:47;;;;;;;5.10;3.40;;;;;;;26.32;75.92;97088.75;4990170;28;20057;-45
2022/06/17 09:50:20;;;;;;;5.78;3.60;;;;;;;25.89;92.25;97087.84;4984158;28;20082;-47
2022/06/17 09:52:53;;;;;;;4.82;3.65;;;;;;;26.27;98.24;97087.56;4990348;28;20074;-47
2022/06/17 09:55:26;;;;;;;5.30;3.35;;;;;;;26.19;74.37;97093.31;4990333;28;20081;-50
2022/06/17 09:57:57;;;;;;;4.43;3.25;;;;;;;26.19;70.58;97093.31;4986962;28;20069;-47
2022/06/17 10:00:28;;;;;;;5.90;3.22;;;;;;;26.55;65.98;97093.47;4990180;28;20517;-48
2022/06/17 10:03:06;;;;;;;4.97;3.15;;;;;;;27.05;62.75;97093.91;4990204;28;20548;-51
2022/06/17 10:05:40;;;;;;;3.25;2.90;;;;;;;26.91;68.06;97097.88;4990077;28;20078;-47
2022/06/17 10:08:13;;;;;;;6.57;3.40;;;;;;;26.70;67.00;97091.97;4986825;28;20611;-49
2022/06/17 10:10:48;;;;;;;6.30;3.50;;;;;;;27.03;62.27;97092.50;4984326;28;20868;-48
2022/06/17 10:13:23;;;;;;;4.72;3.10;;;;;;;26.93;80.37;97093.06;4989896;28;20090;-45
2022/06/17 10:18:53;;;;;;;4.63;2.70;;;;;;;26.49;56.23;97096.00;4990036;28;20466;-48
2022/06/17 10:21:37;;;;;;;4.40;2.67;;;;;;;26.89;62.49;97086.47;4989670;28;20077;-54
2022/06/17 10:24:12;;;;;;;4.00;2.75;;;;;;;26.97;66.75;97086.94;4985226;28;20062;-47
2022/06/17 10:26:51;;;;;;;4.28;3.05;;;;;;;26.90;59.72;97090.81;4990257;28;20086;-48
2022/06/17 10:29:33;;;;;;;3.63;2.63;;;;;;;27.12;57.55;97097.38;4969746;28;20525;-45
2022/06/17 10:32:01;;;;;;;5.85;3.38;;;;;;;27.26;60.67;97089.03;4975405;28;20868;-46
2022/06/17 10:34:32;;;;;;;3.95;3.10;;;;;;;26.99;58.18;97086.72;4984027;28;20104;-44
2022/06/17 10:37:05;;;;;;;4.60;3.10;;;;;;;26.98;66.38;97091.31;4983629;28;20490;-52
2022/06/17 10:39:35;;;;;;;7.90;3.22;;;;;;;26.85;57.50;97088.00;4989662;28;20556;-49
2022/06/17 10:42:04;;;;;;;6.25;3.30;;;;;;;27.18;57.43;97084.75;4988776;28;20529;-52
2022/06/17 10:44:33;;;;;;;3.80;2.92;;;;;;;27.15;52.55;97080.66;4990012;28;20086;-50
2022/06/17 10:47:17;;;;;;;4.53;3.20;;;;;;;26.71;53.79;97087.38;4989354;28;20131;-50
2022/06/17 10:49:50;;;;;;;4.60;3.20;;;;;;;27.47;52.21;97083.00;4989359;28;20077;-50
2022/06/17 10:52:22;;;;;;;4.68;3.05;;;;;;;27.57;60.83;97077.00;4989244;28;20149;-45
2022/06/17 10:54:52;;;;;;;3.63;2.80;;;;;;;27.90;56.04;97073.63;4989471;28;20568;-45
2022/06/17 10:57:25;;;;;;;4.75;2.70;;;;;;;27.96;48.12;97077.28;4988768;28;20070;-49
2022/06/17 10:59:53;;;;;;;3.83;2.88;;;;;;;27.53;51.29;97076.66;4988939;28;20081;-44
2022/06/17 11:02:29;;;;;;;4.88;3.28;;;;;;;27.38;60.97;97081.69;4989037;28;20525;-46
2022/06/17 11:04:59;;;;;;;5.30;3.65;;;;;;;27.79;49.65;97078.03;4973965;28;20085;-43
2022/06/17 11:07:31;;;;;;;5.95;3.70;;;;;;;27.93;50.13;97081.28;4988982;28;20173;-46
2022/06/17 11:10:02;;;;;;;4.13;2.83;;;;;;;27.87;50.39;97087.66;4988844;28;20077;-50
2022/06/17 11:12:35;;;;;;;5.15;2.90;;;;;;;28.14;54.08;97077.09;4989017;28;20046;-46
2022/06/17 11:15:13;;;;;;;4.50;2.75;;;;;;;28.31;52.53;97083.41;4989260;28;20069;-49
2022/06/17 11:17:45;;;;;;;5.13;3.00;;;;;;;28.24;49.30;97076.47;4989568;28;20054;-48
2022/06/17 11:20:23;;;;;;;5.72;3.10;;;;;;;28.49;50.24;97087.00;4974235;28;20059;-45
2022/06/17 11:23:20;;;;;;;3.92;2.72;;;;;;;28.46;51.69;97074.78;4984246;28;20074;-49
2022/06/17 11:25:51;;;;;;;3.67;2.90;;;;;;;27.68;52.46;97079.66;4989157;28;20069;-45
2022/06/17 11:28:24;;;;;;;2.80;2.60;;;;;;;28.06;51.24;97085.63;4989192;28;20085;-47
2022/06/17 11:30:55;;;;;;;7.43;2.35;;;;;;;27.97;53.34;97077.03;4988638;28;20070;-43
2022/06/17 11:33:25;;;;;;;6.47;2.70;;;;;;;28.27;48.07;97076.00;4989266;28;20066;-43
2022/06/17 11:36:01;;;;;;;3.70;2.78;;;;;;;28.10;49.28;97070.50;4989042;28;20094;-48
2022/06/17 11:38:32;;;;;;;4.43;2.67;;;;;;;27.30;47.10;97074.75;4989341;28;20085;-52
2022/06/17 11:41:20;;;;;;;;;;;;;;;28.15;45.08;97070.63;4985376;28;20529;-47
2022/06/17 11:43:49;;;;;;;4.47;2.50;;;;;;;27.98;51.00;97065.13;4988994;28;19964;-46
2022/06/17 11:46:19;;;;;;;5.68;2.85;;;;;;;28.15;45.23;97057.06;4988573;28;20536;-49
2022/06/17 11:48:50;;;;;;;3.80;2.55;;;;;;;27.79;50.65;97059.06;4989266;28;20065;-45
2022/06/17 11:51:26;;;;;;;4.63;2.50;;;;;;;28.03;57.37;97054.38;4988228;28;20063;-46
2022/06/17 11:53:58;;;;;;;4.97;2.72;;;;;;;28.19;50.34;97055.50;4987018;28;20089;-47
2022/06/17 11:56:29;;;;;;;3.63;2.47;;;;;;;28.57;49.60;97057.59;4989501;28;20085;-49
2022/06/17 11:59:12;;;;;;;5.68;2.72;;;;;;;28.76;45.19;97051.91;4977278;28;20059;-49
2022/06/17 12:01:42;;;;;;;4.95;2.40;;;;;;;28.27;47.47;97054.28;4982154;28;20134;-46
2022/06/17 12:04:30;;;;;;;5.15;2.67;;;;;;;28.74;48.30;97057.59;4989043;28;20549;-48